sensor_id;sensor_type;location;lat;lon;timestamp;P1;durP1;ratioP1;P2;durP2;ratioP2
58240;SDS011;45058;55.772;38.224;2023-07-13T00:01:51;8.40;;;4.47;;
58240;SDS011;45058;55.772;38.224;2023-07-13T00:04:18;8.40;;;4.45;;
58240;SDS011;45058;55.772;38.224;2023-07-13T00:06:46;7.65;;;4.90;;
58240;SDS011;45058;55.772;38.224;2023-07-13T00:09:13;9.00;;;4.43;;
58240;SDS011;45058;55.772;38.224;2023-07-13T00:11:40;11.63;;;4.85;;
58240;SDS011;45058;55.772;38.224;2023-07-13T00:14:07;9.38;;;5.00;;
58240;SDS011;45058;55.772;38.224;2023-07-13T00:16:34;12.02;;;4.57;;
58240;SDS011;45058;55.772;38.224;2023-07-13T00:19:01;8.43;;;4.57;;
58240;SDS011;45058;55.772;38.224;2023-07-13T00:21:27;14.00;;;4.50;;
58240;SDS011;45058;55.772;38.224;2023-07-13T00:23:53;12.45;;;4.85;;
58240;SDS011;45058;55.772;38.224;2023-07-13T00:26:19;7.90;;;4.75;;
58240;SDS011;45058;55.772;38.224;2023-07-13T00:28:45;11.52;;;4.90;;
58240;SDS011;45058;55.772;38.224;2023-07-13T00:31:12;7.75;;;4.80;;
58240;SDS011;45058;55.772;38.224;2023-07-13T00:33:40;10.50;;;4.75;;
58240;SDS011;45058;55.772;38.224;2023-07-13T00:36:08;10.27;;;4.15;;
58240;SDS011;45058;55.772;38.224;2023-07-13T00:38:35;6.82;;;4.05;;
58240;SDS011;45058;55.772;38.224;2023-07-13T00:41:02;12.43;;;4.55;;
58240;SDS011;45058;55.772;38.224;2023-07-13T00:43:29;13.13;;;4.50;;
58240;SDS011;45058;55.772;38.224;2023-07-13T00:48:37;11.15;;;4.78;;
58240;SDS011;45058;55.772;38.224;2023-07-13T00:51:04;12.73;;;4.43;;
58240;SDS011;45058;55.772;38.224;2023-07-13T00:53:30;14.35;;;4.22;;
58240;SDS011;45058;55.772;38.224;2023-07-13T00:55:58;10.27;;;4.25;;
58240;SDS011;45058;55.772;38.224;2023-07-13T00:58:25;11.40;;;4.00;;
58240;SDS011;45058;55.772;38.224;2023-07-13T01:00:51;6.95;;;3.75;;
58240;SDS011;45058;55.772;38.224;2023-07-13T01:03:18;11.55;;;4.10;;
58240;SDS011;45058;55.772;38.224;2023-07-13T01:05:44;6.25;;;3.65;;
58240;SDS011;45058;55.772;38.224;2023-07-13T01:08:13;6.75;;;3.60;;
58240;SDS011;45058;55.772;38.224;2023-07-13T01:10:38;10.05;;;3.85;;
58240;SDS011;45058;55.772;38.224;2023-07-13T01:13:06;9.65;;;3.80;;
58240;SDS011;45058;55.772;38.224;2023-07-13T01:15:43;7.65;;;3.70;;
58240;SDS011;45058;55.772;38.224;2023-07-13T01:18:13;12.18;;;3.67;;
58240;SDS011;45058;55.772;38.224;2023-07-13T01:20:55;8.38;;;3.83;;
58240;SDS011;45058;55.772;38.224;2023-07-13T01:23:28;16.80;;;3.70;;
58240;SDS011;45058;55.772;38.224;2023-07-13T01:25:56;9.60;;;3.42;;
58240;SDS011;45058;55.772;38.224;2023-07-13T01:28:22;9.02;;;3.38;;
58240;SDS011;45058;55.772;38.224;2023-07-13T01:30:53;7.55;;;3.60;;
58240;SDS011;45058;55.772;38.224;2023-07-13T01:33:22;9.40;;;4.03;;
58240;SDS011;45058;55.772;38.224;2023-07-13T01:35:49;9.35;;;3.75;;
58240;SDS011;45058;55.772;38.224;2023-07-13T01:38:17;7.28;;;4.22;;
58240;SDS011;45058;55.772;38.224;2023-07-13T01:40:45;10.63;;;3.47;;
58240;SDS011;45058;55.772;38.224;2023-07-13T01:43:11;7.32;;;3.90;;
58240;SDS011;45058;55.772;38.224;2023-07-13T01:45:37;11.57;;;3.35;;
58240;SDS011;45058;55.772;38.224;2023-07-13T01:48:03;5.85;;;3.42;;
58240;SDS011;45058;55.772;38.224;2023-07-13T01:50:33;13.00;;;4.10;;
58240;SDS011;45058;55.772;38.224;2023-07-13T01:52:59;8.68;;;3.92;;
58240;SDS011;45058;55.772;38.224;2023-07-13T01:55:25;6.40;;;3.80;;
58240;SDS011;45058;55.772;38.224;2023-07-13T01:57:51;7.63;;;4.18;;
58240;SDS011;45058;55.772;38.224;2023-07-13T02:00:17;9.18;;;3.80;;
58240;SDS011;45058;55.772;38.224;2023-07-13T02:02:47;7.43;;;3.70;;
58240;SDS011;45058;55.772;38.224;2023-07-13T02:05:13;11.50;;;3.63;;
58240;SDS011;45058;55.772;38.224;2023-07-13T02:07:41;7.22;;;3.47;;
58240;SDS011;45058;55.772;38.224;2023-07-13T02:10:10;10.75;;;3.80;;
58240;SDS011;45058;55.772;38.224;2023-07-13T02:12:37;5.65;;;3.72;;
58240;SDS011;45058;55.772;38.224;2023-07-13T02:15:03;9.07;;;4.10;;
58240;SDS011;45058;55.772;38.224;2023-07-13T02:17:34;9.38;;;4.05;;
58240;SDS011;45058;55.772;38.224;2023-07-13T02:20:01;7.32;;;3.40;;
58240;SDS011;45058;55.772;38.224;2023-07-13T02:22:32;7.93;;;3.88;;
58240;SDS011;45058;55.772;38.224;2023-07-13T02:24:58;6.90;;;4.00;;
58240;SDS011;45058;55.772;38.224;2023-07-13T02:27:25;9.20;;;3.60;;
58240;SDS011;45058;55.772;38.224;2023-07-13T02:29:51;22.85;;;4.00;;
58240;SDS011;45058;55.772;38.224;2023-07-13T02:32:19;10.68;;;4.00;;
58240;SDS011;45058;55.772;38.224;2023-07-13T02:34:46;8.48;;;4.50;;
58240;SDS011;45058;55.772;38.224;2023-07-13T02:37:12;11.02;;;4.05;;
58240;SDS011;45058;55.772;38.224;2023-07-13T02:39:38;8.73;;;3.67;;
58240;SDS011;45058;55.772;38.224;2023-07-13T02:42:04;8.65;;;4.60;;
58240;SDS011;45058;55.772;38.224;2023-07-13T02:44:30;7.82;;;3.92;;
58240;SDS011;45058;55.772;38.224;2023-07-13T02:46:56;15.25;;;4.32;;
58240;SDS011;45058;55.772;38.224;2023-07-13T02:49:22;8.98;;;4.15;;
58240;SDS011;45058;55.772;38.224;2023-07-13T02:51:48;10.07;;;4.32;;
58240;SDS011;45058;55.772;38.224;2023-07-13T02:54:14;10.48;;;4.45;;
58240;SDS011;45058;55.772;38.224;2023-07-13T02:56:41;9.38;;;4.03;;
58240;SDS011;45058;55.772;38.224;2023-07-13T02:59:07;7.22;;;4.10;;
58240;SDS011;45058;55.772;38.224;2023-07-13T03:01:33;8.40;;;4.05;;
58240;SDS011;45058;55.772;38.224;2023-07-13T03:04:02;8.60;;;4.30;;
58240;SDS011;45058;55.772;38.224;2023-07-13T03:06:31;9.50;;;3.85;;
58240;SDS011;45058;55.772;38.224;2023-07-13T03:08:59;7.35;;;3.83;;
58240;SDS011;45058;55.772;38.224;2023-07-13T03:11:28;13.15;;;4.70;;
58240;SDS011;45058;55.772;38.224;2023-07-13T03:14:02;10.25;;;3.88;;
58240;SDS011;45058;55.772;38.224;2023-07-13T03:16:32;8.98;;;3.38;;
58240;SDS011;45058;55.772;38.224;2023-07-13T03:18:59;11.05;;;3.80;;
58240;SDS011;45058;55.772;38.224;2023-07-13T03:21:25;9.65;;;3.38;;
58240;SDS011;45058;55.772;38.224;2023-07-13T03:23:51;15.27;;;4.13;;
58240;SDS011;45058;55.772;38.224;2023-07-13T03:26:18;6.65;;;3.47;;
58240;SDS011;45058;55.772;38.224;2023-07-13T03:28:45;8.45;;;3.75;;
58240;SDS011;45058;55.772;38.224;2023-07-13T03:31:20;9.25;;;3.75;;
58240;SDS011;45058;55.772;38.224;2023-07-13T03:33:50;10.63;;;4.38;;
58240;SDS011;45058;55.772;38.224;2023-07-13T03:36:17;8.25;;;4.25;;
58240;SDS011;45058;55.772;38.224;2023-07-13T03:38:46;10.30;;;5.05;;
58240;SDS011;45058;55.772;38.224;2023-07-13T03:41:15;16.85;;;4.93;;
58240;SDS011;45058;55.772;38.224;2023-07-13T03:43:43;11.93;;;4.63;;
58240;SDS011;45058;55.772;38.224;2023-07-13T03:46:10;9.95;;;4.80;;
58240;SDS011;45058;55.772;38.224;2023-07-13T03:48:37;9.18;;;4.07;;
58240;SDS011;45058;55.772;38.224;2023-07-13T03:51:05;7.57;;;4.40;;
58240;SDS011;45058;55.772;38.224;2023-07-13T03:53:31;10.05;;;4.10;;
58240;SDS011;45058;55.772;38.224;2023-07-13T03:55:57;11.05;;;4.22;;
58240;SDS011;45058;55.772;38.224;2023-07-13T03:58:32;6.28;;;4.03;;
58240;SDS011;45058;55.772;38.224;2023-07-13T04:01:10;9.38;;;4.07;;
58240;SDS011;45058;55.772;38.224;2023-07-13T04:03:37;10.70;;;3.58;;
58240;SDS011;45058;55.772;38.224;2023-07-13T04:06:04;11.90;;;3.85;;
58240;SDS011;45058;55.772;38.224;2023-07-13T04:08:33;6.30;;;3.85;;
58240;SDS011;45058;55.772;38.224;2023-07-13T04:11:00;5.85;;;3.50;;
58240;SDS011;45058;55.772;38.224;2023-07-13T04:13:27;8.13;;;3.35;;
58240;SDS011;45058;55.772;38.224;2023-07-13T04:15:54;7.05;;;3.38;;
58240;SDS011;45058;55.772;38.224;2023-07-13T04:18:20;8.43;;;3.45;;
58240;SDS011;45058;55.772;38.224;2023-07-13T04:20:47;9.95;;;4.05;;
58240;SDS011;45058;55.772;38.224;2023-07-13T04:23:13;7.93;;;3.85;;
58240;SDS011;45058;55.772;38.224;2023-07-13T04:25:43;7.78;;;3.38;;
58240;SDS011;45058;55.772;38.224;2023-07-13T04:28:17;6.95;;;3.35;;
58240;SDS011;45058;55.772;38.224;2023-07-13T04:30:43;6.90;;;3.78;;
58240;SDS011;45058;55.772;38.224;2023-07-13T04:33:09;7.05;;;3.67;;
58240;SDS011;45058;55.772;38.224;2023-07-13T04:35:35;11.52;;;4.18;;
58240;SDS011;45058;55.772;38.224;2023-07-13T04:38:02;6.47;;;3.78;;
58240;SDS011;45058;55.772;38.224;2023-07-13T04:40:29;8.32;;;3.80;;
58240;SDS011;45058;55.772;38.224;2023-07-13T04:42:56;11.23;;;3.65;;
58240;SDS011;45058;55.772;38.224;2023-07-13T04:45:22;12.57;;;4.75;;
58240;SDS011;45058;55.772;38.224;2023-07-13T04:47:49;7.63;;;4.18;;
58240;SDS011;45058;55.772;38.224;2023-07-13T04:50:15;9.32;;;4.63;;
58240;SDS011;45058;55.772;38.224;2023-07-13T04:52:46;10.15;;;4.45;;
58240;SDS011;45058;55.772;38.224;2023-07-13T04:55:13;7.60;;;3.38;;
58240;SDS011;45058;55.772;38.224;2023-07-13T04:57:39;7.30;;;3.75;;
58240;SDS011;45058;55.772;38.224;2023-07-13T05:00:05;11.43;;;4.00;;
58240;SDS011;45058;55.772;38.224;2023-07-13T05:02:33;9.50;;;3.85;;
58240;SDS011;45058;55.772;38.224;2023-07-13T05:05:00;10.13;;;3.85;;
58240;SDS011;45058;55.772;38.224;2023-07-13T05:07:26;12.02;;;3.80;;
58240;SDS011;45058;55.772;38.224;2023-07-13T05:09:52;8.68;;;4.20;;
58240;SDS011;45058;55.772;38.224;2023-07-13T05:12:18;8.57;;;3.40;;
58240;SDS011;45058;55.772;38.224;2023-07-13T05:14:44;11.18;;;4.28;;
58240;SDS011;45058;55.772;38.224;2023-07-13T05:17:10;6.75;;;3.70;;
58240;SDS011;45058;55.772;38.224;2023-07-13T05:19:36;7.85;;;3.65;;
58240;SDS011;45058;55.772;38.224;2023-07-13T05:22:03;8.95;;;3.53;;
58240;SDS011;45058;55.772;38.224;2023-07-13T05:24:29;15.57;;;4.05;;
58240;SDS011;45058;55.772;38.224;2023-07-13T05:26:55;14.25;;;4.30;;
58240;SDS011;45058;55.772;38.224;2023-07-13T05:29:21;8.43;;;3.85;;
58240;SDS011;45058;55.772;38.224;2023-07-13T05:31:48;11.35;;;4.30;;
58240;SDS011;45058;55.772;38.224;2023-07-13T05:34:14;10.38;;;4.38;;
58240;SDS011;45058;55.772;38.224;2023-07-13T05:36:41;10.35;;;3.90;;
58240;SDS011;45058;55.772;38.224;2023-07-13T05:39:07;14.23;;;4.47;;
58240;SDS011;45058;55.772;38.224;2023-07-13T05:41:33;9.52;;;4.32;;
58240;SDS011;45058;55.772;38.224;2023-07-13T05:43:59;10.40;;;4.18;;
58240;SDS011;45058;55.772;38.224;2023-07-13T05:46:27;9.45;;;3.85;;
58240;SDS011;45058;55.772;38.224;2023-07-13T05:48:53;8.30;;;3.63;;
58240;SDS011;45058;55.772;38.224;2023-07-13T05:51:19;10.07;;;4.28;;
58240;SDS011;45058;55.772;38.224;2023-07-13T05:53:46;14.35;;;4.65;;
58240;SDS011;45058;55.772;38.224;2023-07-13T05:56:11;7.65;;;3.60;;
58240;SDS011;45058;55.772;38.224;2023-07-13T05:58:38;12.50;;;3.60;;
58240;SDS011;45058;55.772;38.224;2023-07-13T06:01:05;8.77;;;3.85;;
58240;SDS011;45058;55.772;38.224;2023-07-13T06:03:33;7.82;;;4.05;;
58240;SDS011;45058;55.772;38.224;2023-07-13T06:05:59;10.85;;;4.00;;
58240;SDS011;45058;55.772;38.224;2023-07-13T06:08:26;9.73;;;4.50;;
58240;SDS011;45058;55.772;38.224;2023-07-13T06:10:52;9.57;;;3.70;;
58240;SDS011;45058;55.772;38.224;2023-07-13T06:13:19;11.77;;;4.05;;
58240;SDS011;45058;55.772;38.224;2023-07-13T06:15:49;12.68;;;4.78;;
58240;SDS011;45058;55.772;38.224;2023-07-13T06:18:15;9.82;;;4.15;;
58240;SDS011;45058;55.772;38.224;2023-07-13T06:20:41;9.00;;;3.78;;
58240;SDS011;45058;55.772;38.224;2023-07-13T06:23:07;10.10;;;3.83;;
58240;SDS011;45058;55.772;38.224;2023-07-13T06:25:33;7.43;;;3.60;;
58240;SDS011;45058;55.772;38.224;2023-07-13T06:28:00;8.93;;;3.90;;
58240;SDS011;45058;55.772;38.224;2023-07-13T06:30:26;10.82;;;3.92;;
58240;SDS011;45058;55.772;38.224;2023-07-13T06:32:52;8.93;;;4.15;;
58240;SDS011;45058;55.772;38.224;2023-07-13T06:35:18;8.40;;;3.55;;
58240;SDS011;45058;55.772;38.224;2023-07-13T06:37:44;10.25;;;3.80;;
58240;SDS011;45058;55.772;38.224;2023-07-13T06:40:10;13.73;;;3.97;;
58240;SDS011;45058;55.772;38.224;2023-07-13T06:42:37;8.02;;;3.50;;
58240;SDS011;45058;55.772;38.224;2023-07-13T06:45:04;7.80;;;3.75;;
58240;SDS011;45058;55.772;38.224;2023-07-13T06:47:32;11.63;;;3.70;;
58240;SDS011;45058;55.772;38.224;2023-07-13T06:49:58;12.93;;;3.95;;
58240;SDS011;45058;55.772;38.224;2023-07-13T06:52:24;11.52;;;3.58;;
58240;SDS011;45058;55.772;38.224;2023-07-13T06:54:50;12.32;;;3.50;;
58240;SDS011;45058;55.772;38.224;2023-07-13T06:57:16;20.02;;;3.42;;
58240;SDS011;45058;55.772;38.224;2023-07-13T06:59:42;5.88;;;3.40;;
58240;SDS011;45058;55.772;38.224;2023-07-13T07:02:09;8.18;;;3.22;;
58240;SDS011;45058;55.772;38.224;2023-07-13T07:04:36;12.43;;;3.90;;
58240;SDS011;45058;55.772;38.224;2023-07-13T07:07:02;9.13;;;3.85;;
58240;SDS011;45058;55.772;38.224;2023-07-13T07:09:28;6.78;;;2.97;;
58240;SDS011;45058;55.772;38.224;2023-07-13T07:11:55;8.85;;;3.50;;
58240;SDS011;45058;55.772;38.224;2023-07-13T07:14:21;13.75;;;4.30;;
58240;SDS011;45058;55.772;38.224;2023-07-13T07:16:48;11.23;;;3.67;;
58240;SDS011;45058;55.772;38.224;2023-07-13T07:19:14;9.43;;;3.72;;
58240;SDS011;45058;55.772;38.224;2023-07-13T07:21:40;14.98;;;6.40;;
58240;SDS011;45058;55.772;38.224;2023-07-13T07:24:06;7.70;;;4.10;;
58240;SDS011;45058;55.772;38.224;2023-07-13T07:26:33;7.65;;;2.88;;
58240;SDS011;45058;55.772;38.224;2023-07-13T07:28:59;8.75;;;3.30;;
58240;SDS011;45058;55.772;38.224;2023-07-13T07:31:25;9.60;;;3.55;;
58240;SDS011;45058;55.772;38.224;2023-07-13T07:33:51;13.18;;;2.90;;
58240;SDS011;45058;55.772;38.224;2023-07-13T07:36:17;9.70;;;3.33;;
58240;SDS011;45058;55.772;38.224;2023-07-13T07:38:43;8.93;;;2.78;;
58240;SDS011;45058;55.772;38.224;2023-07-13T07:41:09;9.40;;;4.40;;
58240;SDS011;45058;55.772;38.224;2023-07-13T07:43:36;11.93;;;3.30;;
58240;SDS011;45058;55.772;38.224;2023-07-13T07:46:02;10.68;;;3.20;;
58240;SDS011;45058;55.772;38.224;2023-07-13T07:48:29;9.48;;;3.53;;
58240;SDS011;45058;55.772;38.224;2023-07-13T07:50:55;17.77;;;3.13;;
58240;SDS011;45058;55.772;38.224;2023-07-13T07:53:21;13.43;;;4.50;;
58240;SDS011;45058;55.772;38.224;2023-07-13T07:55:48;7.90;;;3.50;;
58240;SDS011;45058;55.772;38.224;2023-07-13T07:58:14;11.20;;;2.88;;
58240;SDS011;45058;55.772;38.224;2023-07-13T08:00:40;6.72;;;3.03;;
58240;SDS011;45058;55.772;38.224;2023-07-13T08:03:07;6.32;;;2.58;;
58240;SDS011;45058;55.772;38.224;2023-07-13T08:05:34;11.95;;;3.08;;
58240;SDS011;45058;55.772;38.224;2023-07-13T08:08:01;7.70;;;3.63;;
58240;SDS011;45058;55.772;38.224;2023-07-13T08:10:28;12.75;;;3.95;;
58240;SDS011;45058;55.772;38.224;2023-07-13T08:12:54;13.18;;;4.03;;
58240;SDS011;45058;55.772;38.224;2023-07-13T08:15:20;8.18;;;3.20;;
58240;SDS011;45058;55.772;38.224;2023-07-13T08:17:47;8.98;;;3.47;;
58240;SDS011;45058;55.772;38.224;2023-07-13T08:20:14;7.78;;;3.75;;
58240;SDS011;45058;55.772;38.224;2023-07-13T08:22:40;9.98;;;3.10;;
58240;SDS011;45058;55.772;38.224;2023-07-13T08:25:06;10.82;;;3.45;;
58240;SDS011;45058;55.772;38.224;2023-07-13T08:27:33;13.50;;;3.60;;
58240;SDS011;45058;55.772;38.224;2023-07-13T08:29:59;13.55;;;3.25;;
58240;SDS011;45058;55.772;38.224;2023-07-13T08:32:26;18.08;;;4.10;;
58240;SDS011;45058;55.772;38.224;2023-07-13T08:34:52;7.70;;;3.55;;
58240;SDS011;45058;55.772;38.224;2023-07-13T08:37:18;7.50;;;3.28;;
58240;SDS011;45058;55.772;38.224;2023-07-13T08:39:45;13.48;;;3.80;;
58240;SDS011;45058;55.772;38.224;2023-07-13T08:45:23;10.98;;;4.72;;
58240;SDS011;45058;55.772;38.224;2023-07-13T08:48:18;10.65;;;6.25;;
58240;SDS011;45058;55.772;38.224;2023-07-13T08:51:12;16.25;;;7.38;;
58240;SDS011;45058;55.772;38.224;2023-07-13T08:53:40;12.30;;;7.55;;
58240;SDS011;45058;55.772;38.224;2023-07-13T08:56:16;18.02;;;7.72;;
58240;SDS011;45058;55.772;38.224;2023-07-13T08:58:44;11.55;;;6.78;;
58240;SDS011;45058;55.772;38.224;2023-07-13T09:04:34;10.82;;;5.95;;
58240;SDS011;45058;55.772;38.224;2023-07-13T09:10:21;12.70;;;7.55;;
58240;SDS011;45058;55.772;38.224;2023-07-13T09:12:46;20.25;;;7.80;;
58240;SDS011;45058;55.772;38.224;2023-07-13T09:15:31;10.70;;;6.40;;
58240;SDS011;45058;55.772;38.224;2023-07-13T09:18:03;11.75;;;6.05;;
58240;SDS011;45058;55.772;38.224;2023-07-13T09:20:49;14.73;;;6.70;;
58240;SDS011;45058;55.772;38.224;2023-07-13T09:23:19;14.70;;;6.38;;
58240;SDS011;45058;55.772;38.224;2023-07-13T09:25:49;7.55;;;5.10;;
58240;SDS011;45058;55.772;38.224;2023-07-13T09:28:24;11.77;;;5.70;;
58240;SDS011;45058;55.772;38.224;2023-07-13T09:33:31;12.20;;;4.97;;
58240;SDS011;45058;55.772;38.224;2023-07-13T09:35:58;12.80;;;4.50;;
58240;SDS011;45058;55.772;38.224;2023-07-13T09:38:26;11.90;;;4.82;;
58240;SDS011;45058;55.772;38.224;2023-07-13T09:44:29;9.90;;;4.63;;
58240;SDS011;45058;55.772;38.224;2023-07-13T09:46:44;7.22;;;4.60;;
58240;SDS011;45058;55.772;38.224;2023-07-13T09:49:18;9.65;;;4.32;;
58240;SDS011;45058;55.772;38.224;2023-07-13T09:51:44;15.75;;;4.47;;
58240;SDS011;45058;55.772;38.224;2023-07-13T09:54:20;9.52;;;4.18;;
58240;SDS011;45058;55.772;38.224;2023-07-13T09:56:57;9.40;;;3.95;;
58240;SDS011;45058;55.772;38.224;2023-07-13T09:59:27;13.30;;;4.10;;
58240;SDS011;45058;55.772;38.224;2023-07-13T10:01:56;8.40;;;3.60;;
58240;SDS011;45058;55.772;38.224;2023-07-13T10:04:28;12.23;;;4.05;;
58240;SDS011;45058;55.772;38.224;2023-07-13T10:07:12;6.60;;;3.28;;
58240;SDS011;45058;55.772;38.224;2023-07-13T10:09:44;5.55;;;3.50;;
58240;SDS011;45058;55.772;38.224;2023-07-13T10:12:16;10.07;;;2.92;;
58240;SDS011;45058;55.772;38.224;2023-07-13T10:14:43;6.90;;;3.40;;
58240;SDS011;45058;55.772;38.224;2023-07-13T10:17:12;5.28;;;2.75;;
58240;SDS011;45058;55.772;38.224;2023-07-13T10:19:40;7.85;;;2.83;;
58240;SDS011;45058;55.772;38.224;2023-07-13T10:22:20;6.07;;;2.80;;
58240;SDS011;45058;55.772;38.224;2023-07-13T10:24:51;6.55;;;3.30;;
58240;SDS011;45058;55.772;38.224;2023-07-13T10:27:18;8.20;;;3.30;;
58240;SDS011;45058;55.772;38.224;2023-07-13T10:32:41;9.17;;;3.67;;
58240;SDS011;45058;55.772;38.224;2023-07-13T10:35:09;9.73;;;3.70;;
58240;SDS011;45058;55.772;38.224;2023-07-13T10:40:16;11.43;;;3.70;;
58240;SDS011;45058;55.772;38.224;2023-07-13T10:42:45;7.72;;;3.72;;
58240;SDS011;45058;55.772;38.224;2023-07-13T10:45:14;7.43;;;4.63;;
58240;SDS011;45058;55.772;38.224;2023-07-13T10:47:45;8.45;;;4.57;;
58240;SDS011;45058;55.772;38.224;2023-07-13T10:50:15;9.85;;;5.97;;
58240;SDS011;45058;55.772;38.224;2023-07-13T10:52:51;13.35;;;8.52;;
58240;SDS011;45058;55.772;38.224;2023-07-13T10:58:41;10.68;;;6.90;;
58240;SDS011;45058;55.772;38.224;2023-07-13T11:01:09;10.23;;;4.82;;
58240;SDS011;45058;55.772;38.224;2023-07-13T11:03:38;10.30;;;5.07;;
58240;SDS011;45058;55.772;38.224;2023-07-13T11:08:52;11.43;;;5.05;;
58240;SDS011;45058;55.772;38.224;2023-07-13T11:13:59;8.93;;;4.07;;
58240;SDS011;45058;55.772;38.224;2023-07-13T11:16:37;7.10;;;3.95;;
58240;SDS011;45058;55.772;38.224;2023-07-13T11:29:52;5.32;;;3.38;;
58240;SDS011;45058;55.772;38.224;2023-07-13T11:32:33;7.13;;;3.88;;
58240;SDS011;45058;55.772;38.224;2023-07-13T11:35:00;17.73;;;4.35;;
58240;SDS011;45058;55.772;38.224;2023-07-13T11:37:27;10.65;;;4.05;;
58240;SDS011;45058;55.772;38.224;2023-07-13T11:39:55;6.03;;;3.47;;
58240;SDS011;45058;55.772;38.224;2023-07-13T11:42:21;11.73;;;3.95;;
58240;SDS011;45058;55.772;38.224;2023-07-13T11:44:48;7.07;;;3.58;;
58240;SDS011;45058;55.772;38.224;2023-07-13T11:47:22;11.77;;;4.78;;
58240;SDS011;45058;55.772;38.224;2023-07-13T11:49:50;9.23;;;4.13;;
58240;SDS011;45058;55.772;38.224;2023-07-13T11:52:26;15.10;;;4.60;;
58240;SDS011;45058;55.772;38.224;2023-07-13T11:55:04;7.50;;;4.35;;
58240;SDS011;45058;55.772;38.224;2023-07-13T11:57:50;8.65;;;4.55;;
58240;SDS011;45058;55.772;38.224;2023-07-13T12:00:22;9.35;;;4.60;;
58240;SDS011;45058;55.772;38.224;2023-07-13T12:02:53;9.65;;;4.40;;
58240;SDS011;45058;55.772;38.224;2023-07-13T12:05:21;7.65;;;4.43;;
58240;SDS011;45058;55.772;38.224;2023-07-13T12:07:48;9.27;;;4.75;;
58240;SDS011;45058;55.772;38.224;2023-07-13T12:13:14;8.43;;;4.13;;
58240;SDS011;45058;55.772;38.224;2023-07-13T12:15:37;14.10;;;5.88;;
58240;SDS011;45058;55.772;38.224;2023-07-13T12:20:59;10.60;;;4.78;;
58240;SDS011;45058;55.772;38.224;2023-07-13T12:23:29;12.27;;;4.72;;
58240;SDS011;45058;55.772;38.224;2023-07-13T12:25:57;11.68;;;5.82;;
58240;SDS011;45058;55.772;38.224;2023-07-13T12:31:03;8.93;;;5.38;;
58240;SDS011;45058;55.772;38.224;2023-07-13T12:33:32;11.73;;;5.85;;
58240;SDS011;45058;55.772;38.224;2023-07-13T12:36:03;9.30;;;5.68;;
58240;SDS011;45058;55.772;38.224;2023-07-13T12:38:31;11.18;;;5.60;;
58240;SDS011;45058;55.772;38.224;2023-07-13T12:40:58;9.40;;;5.80;;
58240;SDS011;45058;55.772;38.224;2023-07-13T12:43:25;8.77;;;6.22;;
58240;SDS011;45058;55.772;38.224;2023-07-13T12:46:00;10.77;;;6.03;;
58240;SDS011;45058;55.772;38.224;2023-07-13T12:48:29;11.05;;;6.28;;
58240;SDS011;45058;55.772;38.224;2023-07-13T12:50:56;9.32;;;5.28;;
58240;SDS011;45058;55.772;38.224;2023-07-13T12:53:30;9.45;;;5.55;;
58240;SDS011;45058;55.772;38.224;2023-07-13T12:56:01;9.10;;;5.50;;
58240;SDS011;45058;55.772;38.224;2023-07-13T12:58:30;14.32;;;6.25;;
58240;SDS011;45058;55.772;38.224;2023-07-13T13:01:01;12.00;;;5.95;;
58240;SDS011;45058;55.772;38.224;2023-07-13T13:03:32;9.68;;;6.68;;
58240;SDS011;45058;55.772;38.224;2023-07-13T13:06:17;9.70;;;5.90;;
58240;SDS011;45058;55.772;38.224;2023-07-13T13:08:54;9.20;;;6.10;;
58240;SDS011;45058;55.772;38.224;2023-07-13T13:11:22;12.65;;;7.78;;
58240;SDS011;45058;55.772;38.224;2023-07-13T13:13:49;10.50;;;7.07;;
58240;SDS011;45058;55.772;38.224;2023-07-13T13:19:00;12.20;;;7.50;;
58240;SDS011;45058;55.772;38.224;2023-07-13T13:21:31;18.23;;;7.80;;
58240;SDS011;45058;55.772;38.224;2023-07-13T13:23:58;12.43;;;7.43;;
58240;SDS011;45058;55.772;38.224;2023-07-13T13:26:24;16.98;;;7.88;;
58240;SDS011;45058;55.772;38.224;2023-07-13T13:28:52;14.60;;;7.22;;
58240;SDS011;45058;55.772;38.224;2023-07-13T13:31:19;13.00;;;6.55;;
58240;SDS011;45058;55.772;38.224;2023-07-13T13:33:45;16.30;;;7.90;;
58240;SDS011;45058;55.772;38.224;2023-07-13T13:36:14;12.23;;;6.80;;
58240;SDS011;45058;55.772;38.224;2023-07-13T13:38:42;13.23;;;6.50;;
58240;SDS011;45058;55.772;38.224;2023-07-13T13:41:09;10.80;;;6.70;;
58240;SDS011;45058;55.772;38.224;2023-07-13T13:43:37;16.95;;;6.55;;
58240;SDS011;45058;55.772;38.224;2023-07-13T13:46:05;11.68;;;6.32;;
58240;SDS011;45058;55.772;38.224;2023-07-13T13:48:39;13.20;;;6.55;;
58240;SDS011;45058;55.772;38.224;2023-07-13T13:51:18;11.48;;;6.30;;
58240;SDS011;45058;55.772;38.224;2023-07-13T13:53:46;18.73;;;8.13;;
58240;SDS011;45058;55.772;38.224;2023-07-13T13:56:17;14.38;;;6.88;;
58240;SDS011;45058;55.772;38.224;2023-07-13T13:58:44;12.55;;;6.25;;
58240;SDS011;45058;55.772;38.224;2023-07-13T14:01:15;9.20;;;5.57;;
58240;SDS011;45058;55.772;38.224;2023-07-13T14:03:42;12.88;;;6.40;;
58240;SDS011;45058;55.772;38.224;2023-07-13T14:06:11;14.25;;;7.78;;
58240;SDS011;45058;55.772;38.224;2023-07-13T14:08:38;15.05;;;6.50;;
58240;SDS011;45058;55.772;38.224;2023-07-13T14:11:04;14.68;;;6.13;;
58240;SDS011;45058;55.772;38.224;2023-07-13T14:13:32;10.90;;;7.38;;
58240;SDS011;45058;55.772;38.224;2023-07-13T14:16:02;14.57;;;7.63;;
58240;SDS011;45058;55.772;38.224;2023-07-13T14:18:28;15.70;;;6.90;;
58240;SDS011;45058;55.772;38.224;2023-07-13T14:20:54;12.48;;;6.47;;
58240;SDS011;45058;55.772;38.224;2023-07-13T14:23:21;12.63;;;6.32;;
58240;SDS011;45058;55.772;38.224;2023-07-13T14:25:47;12.43;;;6.13;;
58240;SDS011;45058;55.772;38.224;2023-07-13T14:28:17;11.13;;;6.25;;
58240;SDS011;45058;55.772;38.224;2023-07-13T14:30:52;12.90;;;6.78;;
58240;SDS011;45058;55.772;38.224;2023-07-13T14:33:20;15.30;;;7.57;;
58240;SDS011;45058;55.772;38.224;2023-07-13T14:35:46;17.40;;;6.68;;
58240;SDS011;45058;55.772;38.224;2023-07-13T14:38:14;14.20;;;6.60;;
58240;SDS011;45058;55.772;38.224;2023-07-13T14:40:43;13.48;;;6.75;;
58240;SDS011;45058;55.772;38.224;2023-07-13T14:43:10;14.10;;;6.55;;
58240;SDS011;45058;55.772;38.224;2023-07-13T14:45:43;12.85;;;6.00;;
58240;SDS011;45058;55.772;38.224;2023-07-13T14:48:21;11.00;;;5.80;;
58240;SDS011;45058;55.772;38.224;2023-07-13T14:50:55;10.52;;;6.30;;
58240;SDS011;45058;55.772;38.224;2023-07-13T14:53:24;13.82;;;6.53;;
58240;SDS011;45058;55.772;38.224;2023-07-13T14:55:51;12.07;;;6.55;;
58240;SDS011;45058;55.772;38.224;2023-07-13T14:58:17;9.70;;;5.82;;
58240;SDS011;45058;55.772;38.224;2023-07-13T15:00:43;9.48;;;6.00;;
58240;SDS011;45058;55.772;38.224;2023-07-13T15:03:43;9.88;;;5.50;;
58240;SDS011;45058;55.772;38.224;2023-07-13T15:06:02;8.75;;;5.03;;
58240;SDS011;45058;55.772;38.224;2023-07-13T15:08:28;9.13;;;5.07;;
58240;SDS011;45058;55.772;38.224;2023-07-13T15:10:54;10.88;;;5.50;;
58240;SDS011;45058;55.772;38.224;2023-07-13T15:13:25;9.77;;;5.38;;
58240;SDS011;45058;55.772;38.224;2023-07-13T15:15:53;10.02;;;5.60;;
58240;SDS011;45058;55.772;38.224;2023-07-13T15:18:20;9.80;;;6.20;;
58240;SDS011;45058;55.772;38.224;2023-07-13T15:20:48;9.57;;;5.63;;
58240;SDS011;45058;55.772;38.224;2023-07-13T15:23:16;11.43;;;6.68;;
58240;SDS011;45058;55.772;38.224;2023-07-13T15:25:42;11.57;;;6.63;;
58240;SDS011;45058;55.772;38.224;2023-07-13T15:28:10;15.02;;;5.93;;
58240;SDS011;45058;55.772;38.224;2023-07-13T15:30:41;13.30;;;6.63;;